sensor_id;sensor_type;location;lat;lon;timestamp;P1;durP1;ratioP1;P2;durP2;ratioP2
67053;SDS011;53960;51.826;5.850;2022-11-20T00:00:42;19.73;;;9.50;;
67053;SDS011;53960;51.826;5.850;2022-11-20T00:03:07;19.30;;;9.13;;
67053;SDS011;53960;51.826;5.850;2022-11-20T00:05:33;20.47;;;9.73;;
67053;SDS011;53960;51.826;5.850;2022-11-20T00:07:58;20.57;;;9.43;;
67053;SDS011;53960;51.826;5.850;2022-11-20T00:10:23;19.60;;;9.13;;
67053;SDS011;53960;51.826;5.850;2022-11-20T00:12:49;20.07;;;8.93;;
67053;SDS011;53960;51.826;5.850;2022-11-20T00:15:14;20.53;;;9.17;;
67053;SDS011;53960;51.826;5.850;2022-11-20T00:17:39;21.57;;;9.53;;
67053;SDS011;53960;51.826;5.850;2022-11-20T00:20:05;18.43;;;8.73;;
67053;SDS011;53960;51.826;5.850;2022-11-20T00:22:31;18.35;;;9.52;;
67053;SDS011;53960;51.826;5.850;2022-11-20T00:24:56;20.23;;;9.60;;
67053;SDS011;53960;51.826;5.850;2022-11-20T00:27:22;19.33;;;8.80;;
67053;SDS011;53960;51.826;5.850;2022-11-20T00:29:48;19.45;;;9.35;;
67053;SDS011;53960;51.826;5.850;2022-11-20T00:32:13;22.33;;;10.07;;
67053;SDS011;53960;51.826;5.850;2022-11-20T00:34:38;19.57;;;9.00;;
67053;SDS011;53960;51.826;5.850;2022-11-20T00:37:04;20.33;;;10.40;;
67053;SDS011;53960;51.826;5.850;2022-11-20T00:39:29;20.47;;;10.00;;
67053;SDS011;53960;51.826;5.850;2022-11-20T00:41:55;21.63;;;9.47;;
67053;SDS011;53960;51.826;5.850;2022-11-20T00:44:20;19.87;;;9.70;;
67053;SDS011;53960;51.826;5.850;2022-11-20T00:46:46;22.23;;;10.17;;
67053;SDS011;53960;51.826;5.850;2022-11-20T00:49:11;21.30;;;10.17;;
67053;SDS011;53960;51.826;5.850;2022-11-20T00:51:36;20.43;;;9.83;;
67053;SDS011;53960;51.826;5.850;2022-11-20T00:54:01;20.70;;;9.60;;
67053;SDS011;53960;51.826;5.850;2022-11-20T00:56:27;19.17;;;9.60;;
67053;SDS011;53960;51.826;5.850;2022-11-20T00:58:52;22.43;;;10.30;;
67053;SDS011;53960;51.826;5.850;2022-11-20T01:01:19;21.97;;;10.77;;
67053;SDS011;53960;51.826;5.850;2022-11-20T01:03:49;20.40;;;10.57;;
67053;SDS011;53960;51.826;5.850;2022-11-20T01:06:17;22.65;;;10.80;;
67053;SDS011;53960;51.826;5.850;2022-11-20T01:08:42;21.73;;;10.03;;
67053;SDS011;53960;51.826;5.850;2022-11-20T01:11:13;22.73;;;11.00;;
67053;SDS011;53960;51.826;5.850;2022-11-20T01:13:41;21.63;;;10.30;;
67053;SDS011;53960;51.826;5.850;2022-11-20T01:16:12;21.15;;;10.98;;
67053;SDS011;53960;51.826;5.850;2022-11-20T01:18:49;22.30;;;10.45;;
67053;SDS011;53960;51.826;5.850;2022-11-20T01:21:28;21.67;;;10.20;;
67053;SDS011;53960;51.826;5.850;2022-11-20T01:23:57;21.30;;;9.80;;
67053;SDS011;53960;51.826;5.850;2022-11-20T01:26:24;19.90;;;9.50;;
67053;SDS011;53960;51.826;5.850;2022-11-20T01:28:51;22.27;;;10.10;;
67053;SDS011;53960;51.826;5.850;2022-11-20T01:31:18;22.77;;;10.10;;
67053;SDS011;53960;51.826;5.850;2022-11-20T01:33:46;19.45;;;10.13;;
67053;SDS011;53960;51.826;5.850;2022-11-20T01:36:13;23.17;;;10.50;;
67053;SDS011;53960;51.826;5.850;2022-11-20T01:38:40;20.93;;;9.67;;
67053;SDS011;53960;51.826;5.850;2022-11-20T01:41:06;21.95;;;10.43;;
67053;SDS011;53960;51.826;5.850;2022-11-20T01:43:32;21.13;;;10.13;;
67053;SDS011;53960;51.826;5.850;2022-11-20T01:46:00;20.75;;;9.52;;
67053;SDS011;53960;51.826;5.850;2022-11-20T01:53:58;20.52;;;9.77;;
67053;SDS011;53960;51.826;5.850;2022-11-20T01:56:25;17.83;;;8.77;;
67053;SDS011;53960;51.826;5.850;2022-11-20T01:58:54;20.45;;;9.85;;
67053;SDS011;53960;51.826;5.850;2022-11-20T02:01:23;20.90;;;9.67;;
67053;SDS011;53960;51.826;5.850;2022-11-20T02:03:49;20.80;;;9.82;;
67053;SDS011;53960;51.826;5.850;2022-11-20T02:06:31;19.63;;;9.55;;
67053;SDS011;53960;51.826;5.850;2022-11-20T02:09:07;20.03;;;9.40;;
67053;SDS011;53960;51.826;5.850;2022-11-20T02:11:32;19.52;;;9.35;;
67053;SDS011;53960;51.826;5.850;2022-11-20T02:13:58;20.70;;;9.70;;
67053;SDS011;53960;51.826;5.850;2022-11-20T02:16:25;21.00;;;10.00;;
67053;SDS011;53960;51.826;5.850;2022-11-20T02:18:55;20.60;;;9.80;;
67053;SDS011;53960;51.826;5.850;2022-11-20T02:24:19;17.75;;;9.75;;
67053;SDS011;53960;51.826;5.850;2022-11-20T02:26:49;20.88;;;10.15;;
67053;SDS011;53960;51.826;5.850;2022-11-20T02:30:04;20.42;;;10.05;;
67053;SDS011;53960;51.826;5.850;2022-11-20T02:32:16;19.03;;;9.17;;
67053;SDS011;53960;51.826;5.850;2022-11-20T02:34:46;18.33;;;9.27;;
67053;SDS011;53960;51.826;5.850;2022-11-20T02:37:12;19.10;;;9.60;;
67053;SDS011;53960;51.826;5.850;2022-11-20T02:39:38;24.23;;;10.83;;
67053;SDS011;53960;51.826;5.850;2022-11-20T02:42:05;21.27;;;10.52;;
67053;SDS011;53960;51.826;5.850;2022-11-20T02:44:30;22.07;;;10.17;;
67053;SDS011;53960;51.826;5.850;2022-11-20T02:46:56;21.47;;;9.73;;
67053;SDS011;53960;51.826;5.850;2022-11-20T02:49:23;21.50;;;10.68;;
67053;SDS011;53960;51.826;5.850;2022-11-20T02:51:48;22.27;;;10.53;;
67053;SDS011;53960;51.826;5.850;2022-11-20T02:54:14;18.63;;;9.97;;
67053;SDS011;53960;51.826;5.850;2022-11-20T02:56:39;19.60;;;9.30;;
67053;SDS011;53960;51.826;5.850;2022-11-20T02:59:04;21.33;;;10.10;;
67053;SDS011;53960;51.826;5.850;2022-11-20T03:01:30;19.80;;;9.53;;
67053;SDS011;53960;51.826;5.850;2022-11-20T03:03:55;21.67;;;9.93;;
67053;SDS011;53960;51.826;5.850;2022-11-20T03:06:21;21.37;;;10.07;;
67053;SDS011;53960;51.826;5.850;2022-11-20T03:08:46;19.05;;;10.27;;
67053;SDS011;53960;51.826;5.850;2022-11-20T03:11:12;21.10;;;9.60;;
67053;SDS011;53960;51.826;5.850;2022-11-20T03:13:37;20.27;;;9.77;;
67053;SDS011;53960;51.826;5.850;2022-11-20T03:16:06;19.97;;;10.37;;
67053;SDS011;53960;51.826;5.850;2022-11-20T03:18:40;19.30;;;9.05;;
67053;SDS011;53960;51.826;5.850;2022-11-20T03:21:06;19.65;;;8.70;;
67053;SDS011;53960;51.826;5.850;2022-11-20T03:23:32;20.67;;;10.73;;
67053;SDS011;53960;51.826;5.850;2022-11-20T03:26:08;21.98;;;9.98;;
67053;SDS011;53960;51.826;5.850;2022-11-20T03:28:37;20.83;;;9.90;;
67053;SDS011;53960;51.826;5.850;2022-11-20T03:31:06;18.25;;;9.38;;
67053;SDS011;53960;51.826;5.850;2022-11-20T03:33:36;19.85;;;9.70;;
67053;SDS011;53960;51.826;5.850;2022-11-20T03:36:05;19.10;;;8.77;;
67053;SDS011;53960;51.826;5.850;2022-11-20T03:38:33;20.42;;;9.45;;
67053;SDS011;53960;51.826;5.850;2022-11-20T03:41:03;19.42;;;9.63;;
67053;SDS011;53960;51.826;5.850;2022-11-20T03:43:36;20.20;;;9.98;;
67053;SDS011;53960;51.826;5.850;2022-11-20T03:46:02;22.10;;;10.63;;
67053;SDS011;53960;51.826;5.850;2022-11-20T03:48:28;18.98;;;9.52;;
67053;SDS011;53960;51.826;5.850;2022-11-20T03:50:53;21.67;;;10.00;;
67053;SDS011;53960;51.826;5.850;2022-11-20T03:53:31;18.95;;;8.90;;
67053;SDS011;53960;51.826;5.850;2022-11-20T03:55:56;20.03;;;9.00;;
67053;SDS011;53960;51.826;5.850;2022-11-20T03:58:22;21.00;;;9.60;;
67053;SDS011;53960;51.826;5.850;2022-11-20T04:00:47;21.27;;;9.90;;
67053;SDS011;53960;51.826;5.850;2022-11-20T04:03:12;19.80;;;8.73;;
67053;SDS011;53960;51.826;5.850;2022-11-20T04:05:37;20.40;;;8.80;;
67053;SDS011;53960;51.826;5.850;2022-11-20T04:08:03;18.63;;;9.93;;
67053;SDS011;53960;51.826;5.850;2022-11-20T04:10:28;19.70;;;9.35;;
67053;SDS011;53960;51.826;5.850;2022-11-20T04:12:54;20.47;;;9.13;;
67053;SDS011;53960;51.826;5.850;2022-11-20T04:15:19;20.03;;;9.57;;
67053;SDS011;53960;51.826;5.850;2022-11-20T04:17:44;20.37;;;10.20;;
67053;SDS011;53960;51.826;5.850;2022-11-20T04:20:10;20.10;;;10.20;;
67053;SDS011;53960;51.826;5.850;2022-11-20T04:22:35;21.27;;;10.10;;
67053;SDS011;53960;51.826;5.850;2022-11-20T04:25:00;21.17;;;9.50;;
67053;SDS011;53960;51.826;5.850;2022-11-20T04:27:25;20.77;;;9.70;;
67053;SDS011;53960;51.826;5.850;2022-11-20T04:29:51;22.47;;;9.90;;
67053;SDS011;53960;51.826;5.850;2022-11-20T04:32:16;20.43;;;10.13;;
67053;SDS011;53960;51.826;5.850;2022-11-20T04:34:41;20.90;;;9.23;;
67053;SDS011;53960;51.826;5.850;2022-11-20T04:37:07;20.47;;;9.30;;
67053;SDS011;53960;51.826;5.850;2022-11-20T04:39:32;18.83;;;8.93;;
67053;SDS011;53960;51.826;5.850;2022-11-20T04:41:57;20.90;;;9.90;;
67053;SDS011;53960;51.826;5.850;2022-11-20T04:44:41;19.20;;;9.20;;
67053;SDS011;53960;51.826;5.850;2022-11-20T04:47:06;21.30;;;9.67;;
67053;SDS011;53960;51.826;5.850;2022-11-20T04:49:31;19.67;;;9.10;;
67053;SDS011;53960;51.826;5.850;2022-11-20T04:51:57;19.92;;;9.52;;
67053;SDS011;53960;51.826;5.850;2022-11-20T04:54:23;19.63;;;9.10;;
67053;SDS011;53960;51.826;5.850;2022-11-20T04:56:48;18.80;;;9.23;;
67053;SDS011;53960;51.826;5.850;2022-11-20T04:59:13;20.08;;;9.75;;
67053;SDS011;53960;51.826;5.850;2022-11-20T05:01:39;18.60;;;8.97;;
67053;SDS011;53960;51.826;5.850;2022-11-20T05:04:04;18.13;;;9.10;;
67053;SDS011;53960;51.826;5.850;2022-11-20T05:06:30;19.80;;;9.25;;
67053;SDS011;53960;51.826;5.850;2022-11-20T05:08:56;18.17;;;9.60;;
67053;SDS011;53960;51.826;5.850;2022-11-20T05:11:22;19.65;;;9.73;;
67053;SDS011;53960;51.826;5.850;2022-11-20T05:13:47;18.07;;;8.97;;
67053;SDS011;53960;51.826;5.850;2022-11-20T05:16:15;19.52;;;9.15;;
67053;SDS011;53960;51.826;5.850;2022-11-20T05:18:42;19.83;;;9.70;;
67053;SDS011;53960;51.826;5.850;2022-11-20T05:21:07;19.70;;;9.20;;
67053;SDS011;53960;51.826;5.850;2022-11-20T05:23:34;17.90;;;9.27;;
67053;SDS011;53960;51.826;5.850;2022-11-20T05:26:00;18.93;;;8.87;;
67053;SDS011;53960;51.826;5.850;2022-11-20T05:28:26;20.23;;;9.23;;
67053;SDS011;53960;51.826;5.850;2022-11-20T05:30:52;19.30;;;9.77;;
67053;SDS011;53960;51.826;5.850;2022-11-20T05:33:17;18.37;;;8.90;;
67053;SDS011;53960;51.826;5.850;2022-11-20T05:35:43;19.63;;;9.60;;
67053;SDS011;53960;51.826;5.850;2022-11-20T05:38:09;19.75;;;9.27;;
67053;SDS011;53960;51.826;5.850;2022-11-20T05:40:34;18.67;;;8.83;;
67053;SDS011;53960;51.826;5.850;2022-11-20T05:43:00;20.00;;;9.45;;
67053;SDS011;53960;51.826;5.850;2022-11-20T05:45:26;19.60;;;9.83;;
67053;SDS011;53960;51.826;5.850;2022-11-20T05:47:51;20.60;;;9.10;;
67053;SDS011;53960;51.826;5.850;2022-11-20T05:50:16;21.50;;;9.60;;
67053;SDS011;53960;51.826;5.850;2022-11-20T05:52:42;20.63;;;9.88;;
67053;SDS011;53960;51.826;5.850;2022-11-20T05:55:07;20.63;;;9.83;;
67053;SDS011;53960;51.826;5.850;2022-11-20T05:57:33;21.70;;;10.03;;
67053;SDS011;53960;51.826;5.850;2022-11-20T05:59:58;19.53;;;9.23;;
67053;SDS011;53960;51.826;5.850;2022-11-20T06:02:23;21.27;;;9.63;;
67053;SDS011;53960;51.826;5.850;2022-11-20T06:04:48;19.15;;;9.23;;
67053;SDS011;53960;51.826;5.850;2022-11-20T06:07:14;19.93;;;9.43;;
67053;SDS011;53960;51.826;5.850;2022-11-20T06:09:39;17.93;;;8.90;;
67053;SDS011;53960;51.826;5.850;2022-11-20T06:12:05;19.37;;;8.67;;
67053;SDS011;53960;51.826;5.850;2022-11-20T06:14:30;20.33;;;9.90;;
67053;SDS011;53960;51.826;5.850;2022-11-20T06:16:56;19.63;;;9.30;;
67053;SDS011;53960;51.826;5.850;2022-11-20T06:19:21;20.60;;;9.23;;
67053;SDS011;53960;51.826;5.850;2022-11-20T06:21:47;17.50;;;8.80;;
67053;SDS011;53960;51.826;5.850;2022-11-20T06:24:14;18.35;;;8.88;;
67053;SDS011;53960;51.826;5.850;2022-11-20T06:26:39;22.13;;;9.43;;
67053;SDS011;53960;51.826;5.850;2022-11-20T06:29:04;19.83;;;9.70;;
67053;SDS011;53960;51.826;5.850;2022-11-20T06:31:30;19.10;;;9.10;;
67053;SDS011;53960;51.826;5.850;2022-11-20T06:33:57;24.50;;;9.85;;
67053;SDS011;53960;51.826;5.850;2022-11-20T06:36:23;20.67;;;9.23;;
67053;SDS011;53960;51.826;5.850;2022-11-20T06:38:48;20.93;;;9.23;;
67053;SDS011;53960;51.826;5.850;2022-11-20T06:41:15;17.67;;;8.90;;
67053;SDS011;53960;51.826;5.850;2022-11-20T06:43:41;25.05;;;10.07;;
67053;SDS011;53960;51.826;5.850;2022-11-20T06:46:08;18.60;;;9.27;;
67053;SDS011;53960;51.826;5.850;2022-11-20T06:48:34;20.02;;;9.30;;
67053;SDS011;53960;51.826;5.850;2022-11-20T06:51:00;19.67;;;9.97;;
67053;SDS011;53960;51.826;5.850;2022-11-20T06:53:28;20.50;;;10.10;;
67053;SDS011;53960;51.826;5.850;2022-11-20T06:55:56;23.27;;;9.70;;
67053;SDS011;53960;51.826;5.850;2022-11-20T06:58:22;20.00;;;9.60;;
67053;SDS011;53960;51.826;5.850;2022-11-20T07:00:48;19.00;;;9.60;;
67053;SDS011;53960;51.826;5.850;2022-11-20T07:03:13;20.60;;;9.20;;
67053;SDS011;53960;51.826;5.850;2022-11-20T07:05:39;20.27;;;9.77;;
67053;SDS011;53960;51.826;5.850;2022-11-20T07:08:05;20.97;;;9.53;;
67053;SDS011;53960;51.826;5.850;2022-11-20T07:10:31;21.65;;;9.68;;
67053;SDS011;53960;51.826;5.850;2022-11-20T07:12:56;20.40;;;10.03;;
67053;SDS011;53960;51.826;5.850;2022-11-20T07:15:22;20.83;;;10.48;;
67053;SDS011;53960;51.826;5.850;2022-11-20T07:17:49;20.57;;;9.80;;
67053;SDS011;53960;51.826;5.850;2022-11-20T07:20:15;21.15;;;9.43;;
67053;SDS011;53960;51.826;5.850;2022-11-20T07:22:40;20.30;;;10.57;;
67053;SDS011;53960;51.826;5.850;2022-11-20T07:25:06;23.80;;;10.10;;
67053;SDS011;53960;51.826;5.850;2022-11-20T07:27:32;20.75;;;9.60;;
67053;SDS011;53960;51.826;5.850;2022-11-20T07:29:58;22.43;;;9.80;;
67053;SDS011;53960;51.826;5.850;2022-11-20T07:32:23;22.30;;;10.30;;
67053;SDS011;53960;51.826;5.850;2022-11-20T07:34:49;20.10;;;9.83;;
67053;SDS011;53960;51.826;5.850;2022-11-20T07:37:14;23.50;;;10.47;;
67053;SDS011;53960;51.826;5.850;2022-11-20T07:39:40;25.40;;;11.18;;
67053;SDS011;53960;51.826;5.850;2022-11-20T07:42:06;23.33;;;10.63;;
67053;SDS011;53960;51.826;5.850;2022-11-20T07:44:32;21.23;;;10.82;;
67053;SDS011;53960;51.826;5.850;2022-11-20T07:46:57;21.23;;;10.13;;
67053;SDS011;53960;51.826;5.850;2022-11-20T07:49:23;21.52;;;10.63;;
67053;SDS011;53960;51.826;5.850;2022-11-20T07:51:49;23.10;;;10.47;;
67053;SDS011;53960;51.826;5.850;2022-11-20T07:54:15;21.80;;;11.00;;
67053;SDS011;53960;51.826;5.850;2022-11-20T07:56:41;22.93;;;10.97;;
67053;SDS011;53960;51.826;5.850;2022-11-20T07:59:06;23.80;;;10.53;;
67053;SDS011;53960;51.826;5.850;2022-11-20T08:01:31;22.40;;;11.30;;
67053;SDS011;53960;51.826;5.850;2022-11-20T08:03:57;21.27;;;11.03;;
67053;SDS011;53960;51.826;5.850;2022-11-20T08:06:22;24.77;;;11.70;;
67053;SDS011;53960;51.826;5.850;2022-11-20T08:08:49;24.25;;;11.15;;
67053;SDS011;53960;51.826;5.850;2022-11-20T08:11:15;24.63;;;12.00;;
67053;SDS011;53960;51.826;5.850;2022-11-20T08:13:58;28.63;;;14.48;;
67053;SDS011;53960;51.826;5.850;2022-11-20T08:16:39;28.33;;;15.10;;
67053;SDS011;53960;51.826;5.850;2022-11-20T08:19:06;28.37;;;14.87;;
67053;SDS011;53960;51.826;5.850;2022-11-20T08:21:32;26.95;;;14.32;;
67053;SDS011;53960;51.826;5.850;2022-11-20T08:23:57;25.73;;;12.43;;
67053;SDS011;53960;51.826;5.850;2022-11-20T08:26:23;25.65;;;12.40;;
67053;SDS011;53960;51.826;5.850;2022-11-20T08:28:52;24.77;;;12.38;;
67053;SDS011;53960;51.826;5.850;2022-11-20T08:31:19;25.10;;;12.65;;
67053;SDS011;53960;51.826;5.850;2022-11-20T08:33:45;26.67;;;12.20;;
67053;SDS011;53960;51.826;5.850;2022-11-20T08:36:10;28.83;;;13.53;;
67053;SDS011;53960;51.826;5.850;2022-11-20T08:38:35;25.80;;;12.33;;
67053;SDS011;53960;51.826;5.850;2022-11-20T08:41:01;27.67;;;13.57;;
67053;SDS011;53960;51.826;5.850;2022-11-20T08:43:46;29.17;;;14.40;;
67053;SDS011;53960;51.826;5.850;2022-11-20T08:46:12;28.23;;;14.23;;
67053;SDS011;53960;51.826;5.850;2022-11-20T08:48:37;28.15;;;13.82;;
67053;SDS011;53960;51.826;5.850;2022-11-20T08:51:03;27.87;;;13.63;;
67053;SDS011;53960;51.826;5.850;2022-11-20T08:53:28;27.53;;;14.00;;
67053;SDS011;53960;51.826;5.850;2022-11-20T08:55:53;29.00;;;13.67;;
67053;SDS011;53960;51.826;5.850;2022-11-20T08:58:19;27.83;;;14.17;;
67053;SDS011;53960;51.826;5.850;2022-11-20T09:00:44;27.70;;;14.63;;
67053;SDS011;53960;51.826;5.850;2022-11-20T09:03:10;28.65;;;14.60;;
67053;SDS011;53960;51.826;5.850;2022-11-20T09:05:35;29.00;;;14.43;;
67053;SDS011;53960;51.826;5.850;2022-11-20T09:08:00;27.67;;;14.40;;
67053;SDS011;53960;51.826;5.850;2022-11-20T09:10:26;26.77;;;13.97;;
67053;SDS011;53960;51.826;5.850;2022-11-20T09:12:52;32.03;;;15.02;;
67053;SDS011;53960;51.826;5.850;2022-11-20T09:15:19;30.10;;;14.93;;
67053;SDS011;53960;51.826;5.850;2022-11-20T09:17:52;28.73;;;14.23;;
67053;SDS011;53960;51.826;5.850;2022-11-20T09:20:18;29.30;;;15.05;;
67053;SDS011;53960;51.826;5.850;2022-11-20T09:22:44;32.30;;;15.88;;
67053;SDS011;53960;51.826;5.850;2022-11-20T09:25:09;28.30;;;14.73;;
67053;SDS011;53960;51.826;5.850;2022-11-20T09:27:34;29.93;;;14.50;;
67053;SDS011;53960;51.826;5.850;2022-11-20T09:30:00;30.45;;;15.32;;
67053;SDS011;53960;51.826;5.850;2022-11-20T09:32:26;29.23;;;14.40;;
67053;SDS011;53960;51.826;5.850;2022-11-20T09:34:51;27.60;;;14.67;;
67053;SDS011;53960;51.826;5.850;2022-11-20T09:37:16;30.47;;;15.70;;
67053;SDS011;53960;51.826;5.850;2022-11-20T09:39:41;29.40;;;15.33;;
67053;SDS011;53960;51.826;5.850;2022-11-20T09:42:27;27.90;;;15.57;;
67053;SDS011;53960;51.826;5.850;2022-11-20T09:50:43;26.77;;;14.90;;
67053;SDS011;53960;51.826;5.850;2022-11-20T09:56:16;29.23;;;15.00;;
67053;SDS011;53960;51.826;5.850;2022-11-20T09:58:43;31.77;;;16.33;;
67053;SDS011;53960;51.826;5.850;2022-11-20T10:01:14;28.20;;;14.97;;
67053;SDS011;53960;51.826;5.850;2022-11-20T10:03:44;29.17;;;14.68;;
67053;SDS011;53960;51.826;5.850;2022-11-20T10:06:17;31.25;;;15.40;;
67053;SDS011;53960;51.826;5.850;2022-11-20T10:08:47;27.73;;;14.65;;
67053;SDS011;53960;51.826;5.850;2022-11-20T10:11:41;30.25;;;15.65;;
67053;SDS011;53960;51.826;5.850;2022-11-20T10:14:32;30.30;;;15.57;;
67053;SDS011;53960;51.826;5.850;2022-11-20T10:17:30;31.92;;;15.90;;
67053;SDS011;53960;51.826;5.850;2022-11-20T10:20:16;30.63;;;15.52;;
67053;SDS011;53960;51.826;5.850;2022-11-20T10:25:56;34.33;;;16.17;;
67053;SDS011;53960;51.826;5.850;2022-11-20T10:31:04;29.75;;;15.10;;
67053;SDS011;53960;51.826;5.850;2022-11-20T10:33:40;31.15;;;16.33;;
67053;SDS011;53960;51.826;5.850;2022-11-20T10:36:17;30.30;;;14.77;;
67053;SDS011;53960;51.826;5.850;2022-11-20T10:38:57;29.67;;;16.15;;
67053;SDS011;53960;51.826;5.850;2022-11-20T10:41:27;27.27;;;14.43;;
67053;SDS011;53960;51.826;5.850;2022-11-20T10:47:04;31.00;;;16.38;;
67053;SDS011;53960;51.826;5.850;2022-11-20T10:49:30;30.02;;;15.80;;
67053;SDS011;53960;51.826;5.850;2022-11-20T10:54:54;33.20;;;15.90;;
67053;SDS011;53960;51.826;5.850;2022-11-20T11:00:22;32.63;;;16.15;;
67053;SDS011;53960;51.826;5.850;2022-11-20T11:02:48;29.33;;;14.87;;
67053;SDS011;53960;51.826;5.850;2022-11-20T11:07:59;31.50;;;15.13;;
67053;SDS011;53960;51.826;5.850;2022-11-20T11:10:32;30.73;;;14.70;;
67053;SDS011;53960;51.826;5.850;2022-11-20T11:12:58;31.67;;;16.30;;
67053;SDS011;53960;51.826;5.850;2022-11-20T11:18:06;30.50;;;14.77;;
67053;SDS011;53960;51.826;5.850;2022-11-20T11:20:34;30.10;;;14.88;;
67053;SDS011;53960;51.826;5.850;2022-11-20T11:22:59;32.17;;;15.27;;
67053;SDS011;53960;51.826;5.850;2022-11-20T11:28:04;29.33;;;13.93;;
67053;SDS011;53960;51.826;5.850;2022-11-20T11:30:45;30.33;;;14.55;;
67053;SDS011;53960;51.826;5.850;2022-11-20T11:33:17;29.42;;;14.75;;
67053;SDS011;53960;51.826;5.850;2022-11-20T11:35:50;30.50;;;14.80;;
67053;SDS011;53960;51.826;5.850;2022-11-20T11:38:42;28.02;;;13.68;;
67053;SDS011;53960;51.826;5.850;2022-11-20T11:41:09;30.40;;;14.05;;
67053;SDS011;53960;51.826;5.850;2022-11-20T11:43:40;28.65;;;13.77;;
67053;SDS011;53960;51.826;5.850;2022-11-20T11:46:35;28.33;;;13.90;;
67053;SDS011;53960;51.826;5.850;2022-11-20T11:51:34;28.33;;;14.05;;
67053;SDS011;53960;51.826;5.850;2022-11-20T11:54:05;28.50;;;13.63;;
67053;SDS011;53960;51.826;5.850;2022-11-20T11:56:42;30.02;;;14.10;;
67053;SDS011;53960;51.826;5.850;2022-11-20T11:59:09;29.30;;;14.50;;
67053;SDS011;53960;51.826;5.850;2022-11-20T12:01:43;31.40;;;14.73;;
67053;SDS011;53960;51.826;5.850;2022-11-20T12:06:53;28.33;;;15.20;;
67053;SDS011;53960;51.826;5.850;2022-11-20T12:09:28;30.85;;;14.48;;
67053;SDS011;53960;51.826;5.850;2022-11-20T12:12:09;27.25;;;13.80;;
67053;SDS011;53960;51.826;5.850;2022-11-20T12:14:40;29.23;;;14.77;;
67053;SDS011;53960;51.826;5.850;2022-11-20T12:17:11;30.83;;;15.30;;
67053;SDS011;53960;51.826;5.850;2022-11-20T12:19:37;32.38;;;15.98;;
67053;SDS011;53960;51.826;5.850;2022-11-20T12:25:19;31.02;;;15.45;;
67053;SDS011;53960;51.826;5.850;2022-11-20T12:30:23;38.93;;;17.27;;
67053;SDS011;53960;51.826;5.850;2022-11-20T12:39:06;40.95;;;16.50;;
67053;SDS011;53960;51.826;5.850;2022-11-20T12:53:58;39.10;;;17.10;;
67053;SDS011;53960;51.826;5.850;2022-11-20T13:01:25;34.23;;;16.93;;
67053;SDS011;53960;51.826;5.850;2022-11-20T13:06:46;30.30;;;15.65;;
67053;SDS011;53960;51.826;5.850;2022-11-20T13:09:13;34.03;;;16.45;;
67053;SDS011;53960;51.826;5.850;2022-11-20T13:11:46;33.77;;;16.37;;
67053;SDS011;53960;51.826;5.850;2022-11-20T13:14:33;34.53;;;15.68;;
67053;SDS011;53960;51.826;5.850;2022-11-20T13:17:13;31.73;;;14.82;;
67053;SDS011;53960;51.826;5.850;2022-11-20T13:19:47;32.60;;;16.13;;
67053;SDS011;53960;51.826;5.850;2022-11-20T13:22:23;30.20;;;15.88;;
67053;SDS011;53960;51.826;5.850;2022-11-20T13:24:50;31.67;;;16.47;;
67053;SDS011;53960;51.826;5.850;2022-11-20T13:27:18;29.85;;;15.73;;
67053;SDS011;53960;51.826;5.850;2022-11-20T13:29:47;29.83;;;15.77;;
67053;SDS011;53960;51.826;5.850;2022-11-20T13:32:25;33.13;;;16.52;;
67053;SDS011;53960;51.826;5.850;2022-11-20T13:34:56;34.88;;;17.38;;
67053;SDS011;53960;51.826;5.850;2022-11-20T13:37:28;34.17;;;16.80;;
67053;SDS011;53960;51.826;5.850;2022-11-20T13:42:33;33.30;;;17.45;;
67053;SDS011;53960;51.826;5.850;2022-11-20T13:45:08;32.42;;;17.17;;
67053;SDS011;53960;51.826;5.850;2022-11-20T13:47:35;35.33;;;17.70;;
67053;SDS011;53960;51.826;5.850;2022-11-20T13:50:02;32.53;;;16.63;;
67053;SDS011;53960;51.826;5.850;2022-11-20T13:55:40;35.83;;;18.23;;
67053;SDS011;53960;51.826;5.850;2022-11-20T14:00:48;34.17;;;18.67;;
67053;SDS011;53960;51.826;5.850;2022-11-20T14:03:23;38.35;;;19.30;;
67053;SDS011;53960;51.826;5.850;2022-11-20T14:06:12;38.45;;;18.40;;
67053;SDS011;53960;51.826;5.850;2022-11-20T14:09:01;39.10;;;18.13;;
67053;SDS011;53960;51.826;5.850;2022-11-20T14:11:30;39.45;;;19.35;;
67053;SDS011;53960;51.826;5.850;2022-11-20T14:14:03;38.27;;;18.70;;
67053;SDS011;53960;51.826;5.850;2022-11-20T14:16:38;40.38;;;18.40;;
67053;SDS011;53960;51.826;5.850;2022-11-20T14:21:44;38.88;;;19.10;;
67053;SDS011;53960;51.826;5.850;2022-11-20T14:24:18;43.88;;;19.77;;
67053;SDS011;53960;51.826;5.850;2022-11-20T14:26:47;41.10;;;19.23;;
67053;SDS011;53960;51.826;5.850;2022-11-20T14:29:14;37.55;;;19.80;;
67053;SDS011;53960;51.826;5.850;2022-11-20T14:31:42;42.95;;;19.70;;
67053;SDS011;53960;51.826;5.850;2022-11-20T14:34:17;43.42;;;20.35;;
67053;SDS011;53960;51.826;5.850;2022-11-20T14:36:46;45.87;;;20.60;;
67053;SDS011;53960;51.826;5.850;2022-11-20T14:39:19;43.35;;;20.17;;
67053;SDS011;53960;51.826;5.850;2022-11-20T14:41:52;43.13;;;20.20;;
67053;SDS011;53960;51.826;5.850;2022-11-20T14:44:19;44.40;;;19.63;;
67053;SDS011;53960;51.826;5.850;2022-11-20T14:46:48;45.15;;;19.10;;
67053;SDS011;53960;51.826;5.850;2022-11-20T14:49:14;44.33;;;20.33;;
67053;SDS011;53960;51.826;5.850;2022-11-20T14:51:39;38.30;;;19.10;;
67053;SDS011;53960;51.826;5.850;2022-11-20T14:56:41;41.83;;;20.70;;
67053;SDS011;53960;51.826;5.850;2022-11-20T14:59:08;48.90;;;23.52;;
67053;SDS011;53960;51.826;5.850;2022-11-20T15:01:34;49.67;;;23.83;;
67053;SDS011;53960;51.826;5.850;2022-11-20T15:04:06;48.58;;;21.33;;
67053;SDS011;53960;51.826;5.850;2022-11-20T15:06:35;44.53;;;19.93;;
67053;SDS011;53960;51.826;5.850;2022-11-20T15:09:02;53.42;;;22.08;;
67053;SDS011;53960;51.826;5.850;2022-11-20T15:11:29;46.35;;;21.05;;
67053;SDS011;53960;51.826;5.850;2022-11-20T15:13:57;49.13;;;20.85;;
67053;SDS011;53960;51.826;5.850;2022-11-20T15:16:27;47.47;;;21.00;;
67053;SDS011;53960;51.826;5.850;2022-11-20T15:18:53;45.90;;;20.63;;
67053;SDS011;53960;51.826;5.850;2022-11-20T15:21:19;44.58;;;19.52;;
67053;SDS011;53960;51.826;5.850;2022-11-20T15:23:45;46.17;;;19.50;;
67053;SDS011;53960;51.826;5.850;2022-11-20T15:26:11;48.00;;;20.30;;
67053;SDS011;53960;51.826;5.850;2022-11-20T15:28:42;48.63;;;20.27;;
67053;SDS011;53960;51.826;5.850;2022-11-20T15:31:12;48.72;;;20.88;;
67053;SDS011;53960;51.826;5.850;2022-11-20T15:33:38;46.95;;;20.45;;
67053;SDS011;53960;51.826;5.850;2022-11-20T15:36:03;48.90;;;20.40;;
67053;SDS011;53960;51.826;5.850;2022-11-20T15:38:29;48.80;;;19.90;;
67053;SDS011;53960;51.826;5.850;2022-11-20T15:40:54;46.60;;;19.63;;
67053;SDS011;53960;51.826;5.850;2022-11-20T15:43:20;43.73;;;20.13;;
67053;SDS011;53960;51.826;5.850;2022-11-20T15:45:46;45.80;;;20.90;;
67053;SDS011;53960;51.826;5.850;2022-11-20T15:48:15;47.80;;;21.30;;
67053;SDS011;53960;51.826;5.850;2022-11-20T15:51:43;51.85;;;21.20;;
67053;SDS011;53960;51.826;5.850;2022-11-20T15:53:49;49.63;;;21.57;;
67053;SDS011;53960;51.826;5.850;2022-11-20T15:56:15;52.53;;;21.35;;
67053;SDS011;53960;51.826;5.850;2022-11-20T15:58:40;48.50;;;21.57;;
67053;SDS011;53960;51.826;5.850;2022-11-20T16:01:10;50.03;;;21.47;;
67053;SDS011;53960;51.826;5.850;2022-11-20T16:03:37;45.28;;;19.88;;